sensor_id;sensor_type;location;lat;lon;timestamp;temperature;humidity
23721;DHT22;42950;52.134;5.578;2024-03-02T00:00:07;9.20;99.90
23721;DHT22;42950;52.134;5.578;2024-03-02T00:02:43;9.30;99.90
23721;DHT22;42950;52.134;5.578;2024-03-02T00:05:11;9.30;99.90
23721;DHT22;42950;52.134;5.578;2024-03-02T00:07:38;9.20;99.90
23721;DHT22;42950;52.134;5.578;2024-03-02T00:10:09;9.30;99.90
23721;DHT22;42950;52.134;5.578;2024-03-02T00:12:40;9.40;99.90
23721;DHT22;42950;52.134;5.578;2024-03-02T00:17:55;9.40;99.90
23721;DHT22;42950;52.134;5.578;2024-03-02T00:20:22;9.30;99.90
23721;DHT22;42950;52.134;5.578;2024-03-02T00:22:49;9.30;99.90
23721;DHT22;42950;52.134;5.578;2024-03-02T00:25:16;9.30;99.90
23721;DHT22;42950;52.134;5.578;2024-03-02T00:27:41;9.40;99.90
23721;DHT22;42950;52.134;5.578;2024-03-02T00:33:19;9.30;99.90
23721;DHT22;42950;52.134;5.578;2024-03-02T00:35:45;9.30;99.90
23721;DHT22;42950;52.134;5.578;2024-03-02T00:38:11;9.30;99.90
23721;DHT22;42950;52.134;5.578;2024-03-02T00:40:37;9.30;99.90
23721;DHT22;42950;52.134;5.578;2024-03-02T00:43:03;9.20;99.90
23721;DHT22;42950;52.134;5.578;2024-03-02T00:45:31;9.20;99.90
23721;DHT22;42950;52.134;5.578;2024-03-02T00:47:57;9.20;99.90
23721;DHT22;42950;52.134;5.578;2024-03-02T00:50:23;9.20;99.90
23721;DHT22;42950;52.134;5.578;2024-03-02T00:52:48;9.20;99.90
23721;DHT22;42950;52.134;5.578;2024-03-02T00:55:14;9.20;99.90
23721;DHT22;42950;52.134;5.578;2024-03-02T00:57:40;9.20;99.90
23721;DHT22;42950;52.134;5.578;2024-03-02T01:00:06;9.10;99.90
23721;DHT22;42950;52.134;5.578;2024-03-02T01:02:35;9.20;99.90
23721;DHT22;42950;52.134;5.578;2024-03-02T01:05:01;9.20;99.90
23721;DHT22;42950;52.134;5.578;2024-03-02T01:07:26;9.20;99.90
23721;DHT22;42950;52.134;5.578;2024-03-02T01:09:52;9.10;99.90
23721;DHT22;42950;52.134;5.578;2024-03-02T01:12:18;9.00;99.90
23721;DHT22;42950;52.134;5.578;2024-03-02T01:14:43;9.00;99.90
23721;DHT22;42950;52.134;5.578;2024-03-02T01:17:09;9.00;99.90
23721;DHT22;42950;52.134;5.578;2024-03-02T01:19:35;8.90;99.90
23721;DHT22;42950;52.134;5.578;2024-03-02T01:22:00;8.90;99.90
23721;DHT22;42950;52.134;5.578;2024-03-02T01:24:26;8.80;99.90
23721;DHT22;42950;52.134;5.578;2024-03-02T01:26:52;8.80;99.90
23721;DHT22;42950;52.134;5.578;2024-03-02T01:29:17;8.70;99.90
23721;DHT22;42950;52.134;5.578;2024-03-02T01:31:43;8.70;99.90
23721;DHT22;42950;52.134;5.578;2024-03-02T01:34:09;8.70;99.90
23721;DHT22;42950;52.134;5.578;2024-03-02T01:36:34;8.60;99.90
23721;DHT22;42950;52.134;5.578;2024-03-02T01:39:00;8.60;99.90
23721;DHT22;42950;52.134;5.578;2024-03-02T01:41:26;8.60;99.90
23721;DHT22;42950;52.134;5.578;2024-03-02T01:43:51;8.50;99.90
23721;DHT22;42950;52.134;5.578;2024-03-02T01:46:17;8.50;99.90
23721;DHT22;42950;52.134;5.578;2024-03-02T01:48:43;8.50;99.90
23721;DHT22;42950;52.134;5.578;2024-03-02T01:51:08;8.40;99.90
23721;DHT22;42950;52.134;5.578;2024-03-02T01:53:37;8.40;99.90
23721;DHT22;42950;52.134;5.578;2024-03-02T01:56:03;8.40;99.90
23721;DHT22;42950;52.134;5.578;2024-03-02T01:58:28;8.40;99.90
23721;DHT22;42950;52.134;5.578;2024-03-02T02:00:54;8.40;99.90
23721;DHT22;42950;52.134;5.578;2024-03-02T02:03:19;8.30;99.90
23721;DHT22;42950;52.134;5.578;2024-03-02T02:05:45;8.30;99.90
23721;DHT22;42950;52.134;5.578;2024-03-02T02:08:13;8.20;99.90
23721;DHT22;42950;52.134;5.578;2024-03-02T02:10:38;8.20;99.90
23721;DHT22;42950;52.134;5.578;2024-03-02T02:13:04;8.30;99.90
23721;DHT22;42950;52.134;5.578;2024-03-02T02:15:30;8.20;99.90
23721;DHT22;42950;52.134;5.578;2024-03-02T02:17:57;8.20;99.90
23721;DHT22;42950;52.134;5.578;2024-03-02T02:20:24;8.20;99.90
23721;DHT22;42950;52.134;5.578;2024-03-02T02:22:56;8.20;99.90
23721;DHT22;42950;52.134;5.578;2024-03-02T02:25:22;8.20;99.90
23721;DHT22;42950;52.134;5.578;2024-03-02T02:27:48;8.10;99.90
23721;DHT22;42950;52.134;5.578;2024-03-02T02:30:14;8.10;99.90
23721;DHT22;42950;52.134;5.578;2024-03-02T02:32:43;8.10;99.90
23721;DHT22;42950;52.134;5.578;2024-03-02T02:35:09;8.10;99.90
23721;DHT22;42950;52.134;5.578;2024-03-02T02:37:34;8.10;99.90
23721;DHT22;42950;52.134;5.578;2024-03-02T02:40:00;8.10;99.90
23721;DHT22;42950;52.134;5.578;2024-03-02T02:42:25;8.00;99.90
23721;DHT22;42950;52.134;5.578;2024-03-02T02:44:51;8.00;99.90
23721;DHT22;42950;52.134;5.578;2024-03-02T02:47:16;7.90;99.90
23721;DHT22;42950;52.134;5.578;2024-03-02T02:49:42;8.00;99.90
23721;DHT22;42950;52.134;5.578;2024-03-02T02:52:07;7.90;99.90
23721;DHT22;42950;52.134;5.578;2024-03-02T02:54:33;7.80;99.90
23721;DHT22;42950;52.134;5.578;2024-03-02T02:56:58;7.80;99.90
23721;DHT22;42950;52.134;5.578;2024-03-02T02:59:24;7.80;99.90
23721;DHT22;42950;52.134;5.578;2024-03-02T03:01:51;7.80;99.90
23721;DHT22;42950;52.134;5.578;2024-03-02T03:04:17;7.70;99.90
23721;DHT22;42950;52.134;5.578;2024-03-02T03:06:43;7.70;99.90
23721;DHT22;42950;52.134;5.578;2024-03-02T03:09:08;7.70;99.90
23721;DHT22;42950;52.134;5.578;2024-03-02T03:11:36;7.60;99.90
23721;DHT22;42950;52.134;5.578;2024-03-02T03:14:02;7.60;99.90
23721;DHT22;42950;52.134;5.578;2024-03-02T03:16:27;7.60;99.90
23721;DHT22;42950;52.134;5.578;2024-03-02T03:18:53;7.60;99.90
23721;DHT22;42950;52.134;5.578;2024-03-02T03:21:19;7.60;99.90
23721;DHT22;42950;52.134;5.578;2024-03-02T03:23:44;7.50;99.90
23721;DHT22;42950;52.134;5.578;2024-03-02T03:26:10;7.50;99.90
23721;DHT22;42950;52.134;5.578;2024-03-02T03:28:36;7.60;99.90
23721;DHT22;42950;52.134;5.578;2024-03-02T03:31:01;7.50;99.90
23721;DHT22;42950;52.134;5.578;2024-03-02T03:33:27;7.60;99.90
23721;DHT22;42950;52.134;5.578;2024-03-02T03:35:53;7.50;99.90
23721;DHT22;42950;52.134;5.578;2024-03-02T03:41:00;7.50;99.90
23721;DHT22;42950;52.134;5.578;2024-03-02T03:43:25;7.50;99.90
23721;DHT22;42950;52.134;5.578;2024-03-02T03:45:51;7.50;99.90
23721;DHT22;42950;52.134;5.578;2024-03-02T03:48:17;7.40;99.90
23721;DHT22;42950;52.134;5.578;2024-03-02T03:50:43;7.50;99.90
23721;DHT22;42950;52.134;5.578;2024-03-02T03:53:08;7.50;99.90
23721;DHT22;42950;52.134;5.578;2024-03-02T03:55:34;7.50;99.90
23721;DHT22;42950;52.134;5.578;2024-03-02T03:57:59;7.50;99.90
23721;DHT22;42950;52.134;5.578;2024-03-02T04:00:25;7.50;99.90
23721;DHT22;42950;52.134;5.578;2024-03-02T04:02:51;7.50;99.90
23721;DHT22;42950;52.134;5.578;2024-03-02T04:05:16;7.50;99.90
23721;DHT22;42950;52.134;5.578;2024-03-02T04:07:42;7.40;99.90
23721;DHT22;42950;52.134;5.578;2024-03-02T04:10:09;7.40;99.90
23721;DHT22;42950;52.134;5.578;2024-03-02T04:12:38;7.50;99.90
23721;DHT22;42950;52.134;5.578;2024-03-02T04:15:07;7.40;99.90
23721;DHT22;42950;52.134;5.578;2024-03-02T04:17:34;7.50;99.90
23721;DHT22;42950;52.134;5.578;2024-03-02T04:20:01;7.50;99.90
23721;DHT22;42950;52.134;5.578;2024-03-02T04:22:27;7.50;99.90
23721;DHT22;42950;52.134;5.578;2024-03-02T04:24:53;7.50;99.90
23721;DHT22;42950;52.134;5.578;2024-03-02T04:27:18;7.50;99.90
23721;DHT22;42950;52.134;5.578;2024-03-02T04:29:44;7.50;99.90
23721;DHT22;42950;52.134;5.578;2024-03-02T04:32:10;7.50;99.90
23721;DHT22;42950;52.134;5.578;2024-03-02T04:34:35;7.50;99.90
23721;DHT22;42950;52.134;5.578;2024-03-02T04:37:01;7.50;99.90
23721;DHT22;42950;52.134;5.578;2024-03-02T04:39:26;7.50;99.90
23721;DHT22;42950;52.134;5.578;2024-03-02T04:41:52;7.50;99.90
23721;DHT22;42950;52.134;5.578;2024-03-02T04:44:18;7.50;99.90
23721;DHT22;42950;52.134;5.578;2024-03-02T04:46:43;7.40;99.90
23721;DHT22;42950;52.134;5.578;2024-03-02T04:49:09;7.50;99.90
23721;DHT22;42950;52.134;5.578;2024-03-02T04:51:35;7.50;99.90
23721;DHT22;42950;52.134;5.578;2024-03-02T04:54:00;7.50;99.90
23721;DHT22;42950;52.134;5.578;2024-03-02T04:56:26;7.40;99.90
23721;DHT22;42950;52.134;5.578;2024-03-02T04:58:51;7.50;99.90
23721;DHT22;42950;52.134;5.578;2024-03-02T05:01:17;7.40;99.90
23721;DHT22;42950;52.134;5.578;2024-03-02T05:03:42;7.40;99.90
23721;DHT22;42950;52.134;5.578;2024-03-02T05:06:08;7.40;99.90
23721;DHT22;42950;52.134;5.578;2024-03-02T05:08:34;7.40;99.90
23721;DHT22;42950;52.134;5.578;2024-03-02T05:10:59;7.40;99.90
23721;DHT22;42950;52.134;5.578;2024-03-02T05:13:45;7.40;99.90
23721;DHT22;42950;52.134;5.578;2024-03-02T05:16:10;7.40;99.90
23721;DHT22;42950;52.134;5.578;2024-03-02T05:18:37;7.40;99.90
23721;DHT22;42950;52.134;5.578;2024-03-02T05:21:03;7.40;99.90
23721;DHT22;42950;52.134;5.578;2024-03-02T05:23:29;7.40;99.90
23721;DHT22;42950;52.134;5.578;2024-03-02T05:25:54;7.40;99.90
23721;DHT22;42950;52.134;5.578;2024-03-02T05:28:20;7.50;99.90
23721;DHT22;42950;52.134;5.578;2024-03-02T05:30:45;7.50;99.90
23721;DHT22;42950;52.134;5.578;2024-03-02T05:33:12;7.50;99.90
23721;DHT22;42950;52.134;5.578;2024-03-02T05:35:37;7.50;99.90
23721;DHT22;42950;52.134;5.578;2024-03-02T05:38:03;7.50;99.90
23721;DHT22;42950;52.134;5.578;2024-03-02T05:40:28;7.60;99.90
23721;DHT22;42950;52.134;5.578;2024-03-02T05:42:54;7.50;99.90
23721;DHT22;42950;52.134;5.578;2024-03-02T05:45:20;7.50;99.90
23721;DHT22;42950;52.134;5.578;2024-03-02T05:47:45;7.60;99.90
23721;DHT22;42950;52.134;5.578;2024-03-02T05:50:11;7.60;99.90
23721;DHT22;42950;52.134;5.578;2024-03-02T05:52:36;7.60;99.90
23721;DHT22;42950;52.134;5.578;2024-03-02T05:55:02;7.60;99.90
23721;DHT22;42950;52.134;5.578;2024-03-02T05:57:28;7.50;99.90
23721;DHT22;42950;52.134;5.578;2024-03-02T06:00:20;7.50;99.90
23721;DHT22;42950;52.134;5.578;2024-03-02T06:02:45;7.50;99.90
23721;DHT22;42950;52.134;5.578;2024-03-02T06:05:12;7.50;99.90
23721;DHT22;42950;52.134;5.578;2024-03-02T06:07:37;7.50;99.90
23721;DHT22;42950;52.134;5.578;2024-03-02T06:10:03;7.40;99.90
23721;DHT22;42950;52.134;5.578;2024-03-02T06:12:31;7.40;99.90
23721;DHT22;42950;52.134;5.578;2024-03-02T06:14:57;7.30;99.90
23721;DHT22;42950;52.134;5.578;2024-03-02T06:17:23;7.20;99.90
23721;DHT22;42950;52.134;5.578;2024-03-02T06:19:49;7.20;99.90
23721;DHT22;42950;52.134;5.578;2024-03-02T06:22:15;7.10;99.90
23721;DHT22;42950;52.134;5.578;2024-03-02T06:24:41;7.10;99.90
23721;DHT22;42950;52.134;5.578;2024-03-02T06:27:08;7.10;99.90
23721;DHT22;42950;52.134;5.578;2024-03-02T06:29:34;7.10;99.90
23721;DHT22;42950;52.134;5.578;2024-03-02T06:32:00;7.10;99.90
23721;DHT22;42950;52.134;5.578;2024-03-02T06:34:25;7.00;99.90
23721;DHT22;42950;52.134;5.578;2024-03-02T06:36:51;7.00;99.90
23721;DHT22;42950;52.134;5.578;2024-03-02T06:39:17;6.90;99.90
23721;DHT22;42950;52.134;5.578;2024-03-02T06:41:43;6.90;99.90
23721;DHT22;42950;52.134;5.578;2024-03-02T06:44:08;6.90;99.90
23721;DHT22;42950;52.134;5.578;2024-03-02T06:46:35;6.80;99.90
23721;DHT22;42950;52.134;5.578;2024-03-02T06:49:01;6.80;99.90
23721;DHT22;42950;52.134;5.578;2024-03-02T06:51:28;6.80;99.90
23721;DHT22;42950;52.134;5.578;2024-03-02T06:53:54;6.80;99.90
23721;DHT22;42950;52.134;5.578;2024-03-02T06:56:19;6.80;99.90
23721;DHT22;42950;52.134;5.578;2024-03-02T06:58:45;6.80;99.90
23721;DHT22;42950;52.134;5.578;2024-03-02T07:01:12;6.80;99.90
23721;DHT22;42950;52.134;5.578;2024-03-02T07:03:38;6.80;99.90
23721;DHT22;42950;52.134;5.578;2024-03-02T07:06:07;6.90;99.90
23721;DHT22;42950;52.134;5.578;2024-03-02T07:08:33;6.90;99.90
23721;DHT22;42950;52.134;5.578;2024-03-02T07:10:59;6.90;99.90
23721;DHT22;42950;52.134;5.578;2024-03-02T07:13:24;6.90;99.90
23721;DHT22;42950;52.134;5.578;2024-03-02T07:15:50;6.90;99.90
23721;DHT22;42950;52.134;5.578;2024-03-02T07:18:28;6.90;99.90
23721;DHT22;42950;52.134;5.578;2024-03-02T07:20:53;6.90;99.90
23721;DHT22;42950;52.134;5.578;2024-03-02T07:23:20;7.00;99.90
23721;DHT22;42950;52.134;5.578;2024-03-02T07:25:49;7.00;99.90
23721;DHT22;42950;52.134;5.578;2024-03-02T07:28:15;7.00;99.90
23721;DHT22;42950;52.134;5.578;2024-03-02T07:30:41;7.00;99.90
23721;DHT22;42950;52.134;5.578;2024-03-02T07:33:06;7.00;99.90
23721;DHT22;42950;52.134;5.578;2024-03-02T07:35:32;7.00;99.90
23721;DHT22;42950;52.134;5.578;2024-03-02T07:37:58;7.00;99.90
23721;DHT22;42950;52.134;5.578;2024-03-02T07:40:26;7.00;99.90
23721;DHT22;42950;52.134;5.578;2024-03-02T07:42:52;7.00;99.90
23721;DHT22;42950;52.134;5.578;2024-03-02T07:45:17;7.10;99.90
23721;DHT22;42950;52.134;5.578;2024-03-02T07:47:43;7.20;99.90
23721;DHT22;42950;52.134;5.578;2024-03-02T07:50:09;7.20;99.90
23721;DHT22;42950;52.134;5.578;2024-03-02T07:52:34;7.30;99.90
23721;DHT22;42950;52.134;5.578;2024-03-02T07:55:06;7.30;99.90
23721;DHT22;42950;52.134;5.578;2024-03-02T07:57:33;7.50;99.90
23721;DHT22;42950;52.134;5.578;2024-03-02T07:59:59;7.50;99.90
23721;DHT22;42950;52.134;5.578;2024-03-02T08:02:25;7.60;99.90
23721;DHT22;42950;52.134;5.578;2024-03-02T08:04:50;7.70;99.90
23721;DHT22;42950;52.134;5.578;2024-03-02T08:07:16;7.70;99.90
23721;DHT22;42950;52.134;5.578;2024-03-02T08:09:45;7.80;99.90
23721;DHT22;42950;52.134;5.578;2024-03-02T08:12:11;7.90;99.90
23721;DHT22;42950;52.134;5.578;2024-03-02T08:14:37;7.90;99.90
23721;DHT22;42950;52.134;5.578;2024-03-02T08:17:03;7.90;99.90
23721;DHT22;42950;52.134;5.578;2024-03-02T08:19:35;7.90;99.90
23721;DHT22;42950;52.134;5.578;2024-03-02T08:22:00;7.90;99.90
23721;DHT22;42950;52.134;5.578;2024-03-02T08:24:27;7.90;99.90
23721;DHT22;42950;52.134;5.578;2024-03-02T08:26:53;8.00;99.90
23721;DHT22;42950;52.134;5.578;2024-03-02T08:29:18;8.00;99.90
23721;DHT22;42950;52.134;5.578;2024-03-02T08:31:44;8.00;99.90
23721;DHT22;42950;52.134;5.578;2024-03-02T08:34:09;8.00;99.90
23721;DHT22;42950;52.134;5.578;2024-03-02T08:36:35;8.00;99.90
23721;DHT22;42950;52.134;5.578;2024-03-02T08:39:01;8.00;99.90
23721;DHT22;42950;52.134;5.578;2024-03-02T08:41:28;8.00;99.90
23721;DHT22;42950;52.134;5.578;2024-03-02T08:43:54;8.00;99.90
23721;DHT22;42950;52.134;5.578;2024-03-02T08:46:19;8.00;99.90
23721;DHT22;42950;52.134;5.578;2024-03-02T08:48:45;8.00;99.90
23721;DHT22;42950;52.134;5.578;2024-03-02T08:51:11;8.10;99.90
23721;DHT22;42950;52.134;5.578;2024-03-02T08:53:40;8.10;99.90
23721;DHT22;42950;52.134;5.578;2024-03-02T08:56:07;8.20;99.90
23721;DHT22;42950;52.134;5.578;2024-03-02T08:58:33;8.20;99.90
23721;DHT22;42950;52.134;5.578;2024-03-02T09:00:59;8.30;99.90
23721;DHT22;42950;52.134;5.578;2024-03-02T09:03:24;8.40;99.90
23721;DHT22;42950;52.134;5.578;2024-03-02T09:05:50;8.50;99.90
23721;DHT22;42950;52.134;5.578;2024-03-02T09:08:16;8.60;99.90
23721;DHT22;42950;52.134;5.578;2024-03-02T09:10:48;8.60;99.90
23721;DHT22;42950;52.134;5.578;2024-03-02T09:13:14;8.70;99.90
23721;DHT22;42950;52.134;5.578;2024-03-02T09:15:41;8.80;99.90
23721;DHT22;42950;52.134;5.578;2024-03-02T09:18:07;8.90;99.90
23721;DHT22;42950;52.134;5.578;2024-03-02T09:20:33;8.90;99.90
23721;DHT22;42950;52.134;5.578;2024-03-02T09:22:59;9.00;99.90
23721;DHT22;42950;52.134;5.578;2024-03-02T09:25:25;9.10;99.90
23721;DHT22;42950;52.134;5.578;2024-03-02T09:27:50;9.20;99.90
23721;DHT22;42950;52.134;5.578;2024-03-02T09:30:16;9.30;99.90
23721;DHT22;42950;52.134;5.578;2024-03-02T09:32:42;9.40;99.90
23721;DHT22;42950;52.134;5.578;2024-03-02T09:35:07;9.40;99.90
23721;DHT22;42950;52.134;5.578;2024-03-02T09:37:38;9.50;99.90
23721;DHT22;42950;52.134;5.578;2024-03-02T09:40:04;9.50;99.90
23721;DHT22;42950;52.134;5.578;2024-03-02T09:42:31;9.60;99.90
23721;DHT22;42950;52.134;5.578;2024-03-02T09:44:58;9.70;99.90
23721;DHT22;42950;52.134;5.578;2024-03-02T09:47:23;9.70;99.90
23721;DHT22;42950;52.134;5.578;2024-03-02T09:49:49;9.80;99.90
23721;DHT22;42950;52.134;5.578;2024-03-02T09:52:16;9.90;99.90
23721;DHT22;42950;52.134;5.578;2024-03-02T09:54:42;10.00;99.90
23721;DHT22;42950;52.134;5.578;2024-03-02T09:57:08;10.00;99.90
23721;DHT22;42950;52.134;5.578;2024-03-02T09:59:33;10.10;99.90
23721;DHT22;42950;52.134;5.578;2024-03-02T10:02:02;10.10;99.90
23721;DHT22;42950;52.134;5.578;2024-03-02T10:04:30;10.20;99.90
23721;DHT22;42950;52.134;5.578;2024-03-02T10:07:18;10.20;99.90
23721;DHT22;42950;52.134;5.578;2024-03-02T10:09:45;10.30;99.90
23721;DHT22;42950;52.134;5.578;2024-03-02T10:12:13;10.40;99.90
23721;DHT22;42950;52.134;5.578;2024-03-02T10:14:40;10.50;99.90
23721;DHT22;42950;52.134;5.578;2024-03-02T10:17:12;10.60;99.90
23721;DHT22;42950;52.134;5.578;2024-03-02T10:19:39;10.70;99.90
23721;DHT22;42950;52.134;5.578;2024-03-02T10:22:06;10.70;99.90
23721;DHT22;42950;52.134;5.578;2024-03-02T10:24:42;10.80;99.90
23721;DHT22;42950;52.134;5.578;2024-03-02T10:27:16;10.80;99.90
23721;DHT22;42950;52.134;5.578;2024-03-02T10:29:42;11.00;99.90
23721;DHT22;42950;52.134;5.578;2024-03-02T10:32:09;10.90;99.90
23721;DHT22;42950;52.134;5.578;2024-03-02T10:34:37;11.00;99.90
23721;DHT22;42950;52.134;5.578;2024-03-02T10:37:04;11.10;99.90
23721;DHT22;42950;52.134;5.578;2024-03-02T10:39:37;11.10;99.90
23721;DHT22;42950;52.134;5.578;2024-03-02T10:42:06;11.20;99.90
23721;DHT22;42950;52.134;5.578;2024-03-02T10:44:32;11.40;99.90
23721;DHT22;42950;52.134;5.578;2024-03-02T10:47:03;11.40;99.90
23721;DHT22;42950;52.134;5.578;2024-03-02T10:49:30;11.50;99.90
23721;DHT22;42950;52.134;5.578;2024-03-02T10:51:58;11.50;99.90
23721;DHT22;42950;52.134;5.578;2024-03-02T10:54:27;11.50;99.90
23721;DHT22;42950;52.134;5.578;2024-03-02T10:56:58;11.60;99.90
23721;DHT22;42950;52.134;5.578;2024-03-02T10:59:28;11.50;99.90
23721;DHT22;42950;52.134;5.578;2024-03-02T11:01:58;11.60;99.90
23721;DHT22;42950;52.134;5.578;2024-03-02T11:04:31;11.60;99.90
23721;DHT22;42950;52.134;5.578;2024-03-02T11:07:07;11.60;99.90
23721;DHT22;42950;52.134;5.578;2024-03-02T11:09:43;11.70;99.90
23721;DHT22;42950;52.134;5.578;2024-03-02T11:12:19;11.90;99.90
23721;DHT22;42950;52.134;5.578;2024-03-02T11:14:45;11.90;99.90
23721;DHT22;42950;52.134;5.578;2024-03-02T11:17:13;11.90;99.90
23721;DHT22;42950;52.134;5.578;2024-03-02T11:19:41;11.90;99.90
23721;DHT22;42950;52.134;5.578;2024-03-02T11:22:08;12.00;99.90
23721;DHT22;42950;52.134;5.578;2024-03-02T11:24:36;12.00;99.90
23721;DHT22;42950;52.134;5.578;2024-03-02T11:27:06;12.20;99.90
23721;DHT22;42950;52.134;5.578;2024-03-02T11:32:14;12.30;99.90
23721;DHT22;42950;52.134;5.578;2024-03-02T11:34:48;12.30;99.90
23721;DHT22;42950;52.134;5.578;2024-03-02T11:37:15;12.40;99.90
23721;DHT22;42950;52.134;5.578;2024-03-02T11:39:46;12.40;99.90
23721;DHT22;42950;52.134;5.578;2024-03-02T11:42:12;12.50;99.90
23721;DHT22;42950;52.134;5.578;2024-03-02T11:44:42;12.50;99.90
23721;DHT22;42950;52.134;5.578;2024-03-02T11:47:11;12.50;99.90
23721;DHT22;42950;52.134;5.578;2024-03-02T11:49:37;12.50;99.90
23721;DHT22;42950;52.134;5.578;2024-03-02T11:52:05;12.50;99.90
23721;DHT22;42950;52.134;5.578;2024-03-02T11:54:32;12.60;99.90
23721;DHT22;42950;52.134;5.578;2024-03-02T11:57:04;12.60;99.90
23721;DHT22;42950;52.134;5.578;2024-03-02T11:59:35;12.60;99.90
23721;DHT22;42950;52.134;5.578;2024-03-02T12:02:01;12.70;99.90
23721;DHT22;42950;52.134;5.578;2024-03-02T12:04:29;12.80;99.90
23721;DHT22;42950;52.134;5.578;2024-03-02T12:06:59;13.00;99.90
23721;DHT22;42950;52.134;5.578;2024-03-02T12:09:28;13.10;99.90
23721;DHT22;42950;52.134;5.578;2024-03-02T12:12:07;13.00;99.90
23721;DHT22;42950;52.134;5.578;2024-03-02T12:14:35;13.10;99.90
23721;DHT22;42950;52.134;5.578;2024-03-02T12:17:01;13.00;99.90
23721;DHT22;42950;52.134;5.578;2024-03-02T12:19:27;13.10;99.90
23721;DHT22;42950;52.134;5.578;2024-03-02T12:21:59;13.20;99.90
23721;DHT22;42950;52.134;5.578;2024-03-02T12:24:27;13.10;99.90
23721;DHT22;42950;52.134;5.578;2024-03-02T12:26:53;13.10;99.90
23721;DHT22;42950;52.134;5.578;2024-03-02T12:29:20;13.10;99.90
23721;DHT22;42950;52.134;5.578;2024-03-02T12:31:48;13.20;99.90
23721;DHT22;42950;52.134;5.578;2024-03-02T12:34:15;13.20;99.90
23721;DHT22;42950;52.134;5.578;2024-03-02T12:36:45;13.20;99.90
23721;DHT22;42950;52.134;5.578;2024-03-02T12:39:13;13.20;99.90
23721;DHT22;42950;52.134;5.578;2024-03-02T12:41:39;13.30;99.90
23721;DHT22;42950;52.134;5.578;2024-03-02T12:44:05;13.30;99.90
23721;DHT22;42950;52.134;5.578;2024-03-02T12:46:32;13.30;99.90
23721;DHT22;42950;52.134;5.578;2024-03-02T12:48:58;13.30;99.90
23721;DHT22;42950;52.134;5.578;2024-03-02T12:51:24;13.40;99.90
23721;DHT22;42950;52.134;5.578;2024-03-02T12:53:57;13.40;99.90
23721;DHT22;42950;52.134;5.578;2024-03-02T12:56:24;13.40;99.90
23721;DHT22;42950;52.134;5.578;2024-03-02T12:58:54;13.40;99.90
23721;DHT22;42950;52.134;5.578;2024-03-02T13:01:20;13.30;99.90
23721;DHT22;42950;52.134;5.578;2024-03-02T13:03:52;13.20;99.90
23721;DHT22;42950;52.134;5.578;2024-03-02T13:06:18;13.20;99.90
23721;DHT22;42950;52.134;5.578;2024-03-02T13:08:45;13.30;99.90
23721;DHT22;42950;52.134;5.578;2024-03-02T13:11:12;13.40;99.90
23721;DHT22;42950;52.134;5.578;2024-03-02T13:13:38;13.40;99.90
23721;DHT22;42950;52.134;5.578;2024-03-02T13:16:13;13.40;99.90
23721;DHT22;42950;52.134;5.578;2024-03-02T13:18:39;13.50;99.90
23721;DHT22;42950;52.134;5.578;2024-03-02T13:21:06;13.50;99.90
23721;DHT22;42950;52.134;5.578;2024-03-02T13:23:31;13.50;99.90
23721;DHT22;42950;52.134;5.578;2024-03-02T13:25:58;13.60;99.90
23721;DHT22;42950;52.134;5.578;2024-03-02T13:28:24;13.70;99.90
23721;DHT22;42950;52.134;5.578;2024-03-02T13:30:50;13.60;99.90
23721;DHT22;42950;52.134;5.578;2024-03-02T13:33:18;13.60;99.90
23721;DHT22;42950;52.134;5.578;2024-03-02T13:35:51;13.80;99.90
23721;DHT22;42950;52.134;5.578;2024-03-02T13:38:19;13.90;99.90
23721;DHT22;42950;52.134;5.578;2024-03-02T13:40:45;14.00;99.90
23721;DHT22;42950;52.134;5.578;2024-03-02T13:43:12;14.10;99.90
23721;DHT22;42950;52.134;5.578;2024-03-02T13:45:39;14.10;99.90
23721;DHT22;42950;52.134;5.578;2024-03-02T13:48:05;14.00;99.90
23721;DHT22;42950;52.134;5.578;2024-03-02T13:50:31;14.10;99.90
23721;DHT22;42950;52.134;5.578;2024-03-02T13:52:57;14.20;99.90
23721;DHT22;42950;52.134;5.578;2024-03-02T13:55:23;14.30;99.90
23721;DHT22;42950;52.134;5.578;2024-03-02T13:57:49;14.30;99.90
23721;DHT22;42950;52.134;5.578;2024-03-02T14:00:16;14.30;99.90
23721;DHT22;42950;52.134;5.578;2024-03-02T14:02:43;14.40;99.90
23721;DHT22;42950;52.134;5.578;2024-03-02T14:05:09;14.40;99.90
23721;DHT22;42950;52.134;5.578;2024-03-02T14:07:38;14.30;99.90
23721;DHT22;42950;52.134;5.578;2024-03-02T14:10:04;14.30;99.90
23721;DHT22;42950;52.134;5.578;2024-03-02T14:12:30;14.30;99.90
23721;DHT22;42950;52.134;5.578;2024-03-02T14:14:57;14.10;99.90
23721;DHT22;42950;52.134;5.578;2024-03-02T14:17:28;14.10;99.90
23721;DHT22;42950;52.134;5.578;2024-03-02T14:19:54;14.10;99.90
23721;DHT22;42950;52.134;5.578;2024-03-02T14:22:20;14.20;99.90
23721;DHT22;42950;52.134;5.578;2024-03-02T14:24:48;14.50;99.90
23721;DHT22;42950;52.134;5.578;2024-03-02T14:27:14;14.80;99.90
23721;DHT22;42950;52.134;5.578;2024-03-02T14:29:43;15.10;99.90
23721;DHT22;42950;52.134;5.578;2024-03-02T14:32:09;15.10;99.90
23721;DHT22;42950;52.134;5.578;2024-03-02T14:34:35;15.10;99.90
23721;DHT22;42950;52.134;5.578;2024-03-02T14:37:00;14.90;99.90
23721;DHT22;42950;52.134;5.578;2024-03-02T14:39:30;14.80;99.90
23721;DHT22;42950;52.134;5.578;2024-03-02T14:42:00;14.80;99.90
23721;DHT22;42950;52.134;5.578;2024-03-02T14:44:27;14.80;99.90
23721;DHT22;42950;52.134;5.578;2024-03-02T14:46:53;15.00;99.90
23721;DHT22;42950;52.134;5.578;2024-03-02T14:49:19;15.00;99.90
23721;DHT22;42950;52.134;5.578;2024-03-02T14:51:45;15.00;99.90
23721;DHT22;42950;52.134;5.578;2024-03-02T14:54:11;15.00;99.90
23721;DHT22;42950;52.134;5.578;2024-03-02T14:56:39;15.00;99.90
23721;DHT22;42950;52.134;5.578;2024-03-02T14:59:05;15.10;99.90
23721;DHT22;42950;52.134;5.578;2024-03-02T15:01:31;15.00;99.90
23721;DHT22;42950;52.134;5.578;2024-03-02T15:03:59;14.90;99.90
23721;DHT22;42950;52.134;5.578;2024-03-02T15:06:25;14.60;99.90
23721;DHT22;42950;52.134;5.578;2024-03-02T15:08:51;14.50;99.90
23721;DHT22;42950;52.134;5.578;2024-03-02T15:11:16;14.40;99.90
23721;DHT22;42950;52.134;5.578;2024-03-02T15:13:43;14.60;99.90
23721;DHT22;42950;52.134;5.578;2024-03-02T15:16:10;14.60;99.90
23721;DHT22;42950;52.134;5.578;2024-03-02T15:18:36;14.60;99.90
23721;DHT22;42950;52.134;5.578;2024-03-02T15:21:02;14.60;99.90
23721;DHT22;42950;52.134;5.578;2024-03-02T15:23:28;14.60;99.90
23721;DHT22;42950;52.134;5.578;2024-03-02T15:25:56;14.60;99.90
23721;DHT22;42950;52.134;5.578;2024-03-02T15:28:22;14.70;99.90
23721;DHT22;42950;52.134;5.578;2024-03-02T15:30:48;14.70;99.90
23721;DHT22;42950;52.134;5.578;2024-03-02T15:33:13;14.50;99.90
23721;DHT22;42950;52.134;5.578;2024-03-02T15:35:39;14.40;99.90
23721;DHT22;42950;52.134;5.578;2024-03-02T15:38:06;14.40;99.90
23721;DHT22;42950;52.134;5.578;2024-03-02T15:40:34;14.50;99.90
23721;DHT22;42950;52.134;5.578;2024-03-02T15:43:01;14.50;99.90
23721;DHT22;42950;52.134;5.578;2024-03-02T15:45:27;14.70;99.90
23721;DHT22;42950;52.134;5.578;2024-03-02T15:48:00;14.70;99.90